sensor_id;sensor_type;location;lat;lon;timestamp;P1;durP1;ratioP1;P2;durP2;ratioP2
21474;SDS011;10899;53.576;9.960;2022-11-15T00:00:30;6.78;;;3.10;;
21474;SDS011;10899;53.576;9.960;2022-11-15T00:02:57;6.75;;;3.20;;
21474;SDS011;10899;53.576;9.960;2022-11-15T00:05:23;6.45;;;3.25;;
21474;SDS011;10899;53.576;9.960;2022-11-15T00:07:50;6.00;;;3.33;;
21474;SDS011;10899;53.576;9.960;2022-11-15T00:10:17;5.72;;;2.88;;
21474;SDS011;10899;53.576;9.960;2022-11-15T00:12:43;6.55;;;3.45;;
21474;SDS011;10899;53.576;9.960;2022-11-15T00:15:10;7.75;;;3.45;;
21474;SDS011;10899;53.576;9.960;2022-11-15T00:17:36;6.10;;;3.53;;
21474;SDS011;10899;53.576;9.960;2022-11-15T00:20:03;8.90;;;3.55;;
21474;SDS011;10899;53.576;9.960;2022-11-15T00:22:33;7.60;;;3.40;;
21474;SDS011;10899;53.576;9.960;2022-11-15T00:24:59;4.18;;;2.97;;
21474;SDS011;10899;53.576;9.960;2022-11-15T00:27:26;5.82;;;3.30;;
21474;SDS011;10899;53.576;9.960;2022-11-15T00:29:52;5.85;;;3.15;;
21474;SDS011;10899;53.576;9.960;2022-11-15T00:32:19;5.97;;;3.00;;
21474;SDS011;10899;53.576;9.960;2022-11-15T00:34:46;6.40;;;3.20;;
21474;SDS011;10899;53.576;9.960;2022-11-15T00:37:12;5.88;;;3.13;;
21474;SDS011;10899;53.576;9.960;2022-11-15T00:39:39;5.70;;;3.10;;
21474;SDS011;10899;53.576;9.960;2022-11-15T00:42:05;4.57;;;3.10;;
21474;SDS011;10899;53.576;9.960;2022-11-15T00:44:32;7.35;;;3.15;;
21474;SDS011;10899;53.576;9.960;2022-11-15T00:46:58;3.63;;;2.95;;
21474;SDS011;10899;53.576;9.960;2022-11-15T00:49:25;6.35;;;3.40;;
21474;SDS011;10899;53.576;9.960;2022-11-15T00:51:51;6.97;;;3.35;;
21474;SDS011;10899;53.576;9.960;2022-11-15T00:54:18;4.30;;;2.80;;
21474;SDS011;10899;53.576;9.960;2022-11-15T00:56:44;5.90;;;3.20;;
21474;SDS011;10899;53.576;9.960;2022-11-15T00:59:11;6.20;;;2.85;;
21474;SDS011;10899;53.576;9.960;2022-11-15T01:01:38;6.85;;;2.67;;
21474;SDS011;10899;53.576;9.960;2022-11-15T01:04:04;6.80;;;3.35;;
21474;SDS011;10899;53.576;9.960;2022-11-15T01:06:31;4.75;;;3.10;;
21474;SDS011;10899;53.576;9.960;2022-11-15T01:08:58;6.72;;;2.70;;
21474;SDS011;10899;53.576;9.960;2022-11-15T01:11:24;6.13;;;2.95;;
21474;SDS011;10899;53.576;9.960;2022-11-15T01:13:51;6.40;;;2.70;;
21474;SDS011;10899;53.576;9.960;2022-11-15T01:16:18;8.50;;;3.30;;
21474;SDS011;10899;53.576;9.960;2022-11-15T01:18:45;7.18;;;3.20;;
21474;SDS011;10899;53.576;9.960;2022-11-15T01:21:16;5.40;;;2.85;;
21474;SDS011;10899;53.576;9.960;2022-11-15T01:23:43;4.72;;;2.95;;
21474;SDS011;10899;53.576;9.960;2022-11-15T01:26:11;8.98;;;3.13;;
21474;SDS011;10899;53.576;9.960;2022-11-15T01:28:39;5.25;;;2.90;;
21474;SDS011;10899;53.576;9.960;2022-11-15T01:31:06;5.82;;;2.50;;
21474;SDS011;10899;53.576;9.960;2022-11-15T01:33:33;3.70;;;2.88;;
21474;SDS011;10899;53.576;9.960;2022-11-15T01:36:09;4.47;;;2.65;;
21474;SDS011;10899;53.576;9.960;2022-11-15T01:38:36;5.07;;;2.88;;
21474;SDS011;10899;53.576;9.960;2022-11-15T01:41:03;6.50;;;2.50;;
21474;SDS011;10899;53.576;9.960;2022-11-15T01:43:31;5.90;;;2.70;;
21474;SDS011;10899;53.576;9.960;2022-11-15T01:46:06;4.35;;;2.70;;
21474;SDS011;10899;53.576;9.960;2022-11-15T01:48:33;11.20;;;2.75;;
21474;SDS011;10899;53.576;9.960;2022-11-15T01:51:01;5.90;;;2.58;;
21474;SDS011;10899;53.576;9.960;2022-11-15T01:53:28;6.25;;;2.72;;
21474;SDS011;10899;53.576;9.960;2022-11-15T01:55:55;5.55;;;2.38;;
21474;SDS011;10899;53.576;9.960;2022-11-15T01:58:22;6.32;;;2.20;;
21474;SDS011;10899;53.576;9.960;2022-11-15T02:00:49;6.18;;;2.72;;
21474;SDS011;10899;53.576;9.960;2022-11-15T02:03:16;4.97;;;2.53;;
21474;SDS011;10899;53.576;9.960;2022-11-15T02:05:43;4.25;;;2.25;;
21474;SDS011;10899;53.576;9.960;2022-11-15T02:08:10;5.28;;;2.38;;
21474;SDS011;10899;53.576;9.960;2022-11-15T02:10:47;5.78;;;2.38;;
21474;SDS011;10899;53.576;9.960;2022-11-15T02:13:14;7.35;;;2.60;;
21474;SDS011;10899;53.576;9.960;2022-11-15T02:18:32;3.78;;;2.40;;
21474;SDS011;10899;53.576;9.960;2022-11-15T02:21:05;6.90;;;2.42;;
21474;SDS011;10899;53.576;9.960;2022-11-15T02:34:06;5.85;;;2.38;;
21474;SDS011;10899;53.576;9.960;2022-11-15T02:36:42;5.82;;;2.70;;
21474;SDS011;10899;53.576;9.960;2022-11-15T02:41:40;6.68;;;2.50;;
21474;SDS011;10899;53.576;9.960;2022-11-15T02:44:25;5.50;;;2.75;;
21474;SDS011;10899;53.576;9.960;2022-11-15T02:46:53;6.07;;;2.63;;
21474;SDS011;10899;53.576;9.960;2022-11-15T02:49:52;6.60;;;2.63;;
21474;SDS011;10899;53.576;9.960;2022-11-15T02:52:20;6.38;;;3.03;;
21474;SDS011;10899;53.576;9.960;2022-11-15T02:54:56;7.07;;;2.80;;
21474;SDS011;10899;53.576;9.960;2022-11-15T03:00:09;3.55;;;2.67;;
21474;SDS011;10899;53.576;9.960;2022-11-15T03:02:39;6.47;;;2.70;;
21474;SDS011;10899;53.576;9.960;2022-11-15T03:07:37;9.77;;;2.67;;
21474;SDS011;10899;53.576;9.960;2022-11-15T03:12:38;6.38;;;3.13;;
21474;SDS011;10899;53.576;9.960;2022-11-15T03:18:45;6.88;;;3.08;;
21474;SDS011;10899;53.576;9.960;2022-11-15T03:20:52;6.18;;;2.88;;
21474;SDS011;10899;53.576;9.960;2022-11-15T03:23:19;6.68;;;2.95;;
21474;SDS011;10899;53.576;9.960;2022-11-15T03:25:48;8.50;;;3.38;;
21474;SDS011;10899;53.576;9.960;2022-11-15T03:28:19;6.22;;;3.42;;
21474;SDS011;10899;53.576;9.960;2022-11-15T03:30:48;8.70;;;3.17;;
21474;SDS011;10899;53.576;9.960;2022-11-15T03:33:15;5.90;;;3.10;;
21474;SDS011;10899;53.576;9.960;2022-11-15T03:35:43;3.13;;;2.60;;
21474;SDS011;10899;53.576;9.960;2022-11-15T03:40:45;8.07;;;3.13;;
21474;SDS011;10899;53.576;9.960;2022-11-15T03:43:26;4.78;;;2.88;;
21474;SDS011;10899;53.576;9.960;2022-11-15T03:46:01;4.35;;;3.03;;
21474;SDS011;10899;53.576;9.960;2022-11-15T03:48:32;9.90;;;2.92;;
21474;SDS011;10899;53.576;9.960;2022-11-15T03:50:59;5.18;;;3.10;;
21474;SDS011;10899;53.576;9.960;2022-11-15T03:53:27;8.10;;;2.70;;
21474;SDS011;10899;53.576;9.960;2022-11-15T03:55:55;5.30;;;2.95;;
21474;SDS011;10899;53.576;9.960;2022-11-15T03:58:22;5.45;;;2.88;;
21474;SDS011;10899;53.576;9.960;2022-11-15T04:00:49;5.95;;;2.70;;
21474;SDS011;10899;53.576;9.960;2022-11-15T04:03:15;5.32;;;2.40;;
21474;SDS011;10899;53.576;9.960;2022-11-15T04:05:42;6.63;;;2.83;;
21474;SDS011;10899;53.576;9.960;2022-11-15T04:08:08;5.35;;;2.95;;
21474;SDS011;10899;53.576;9.960;2022-11-15T04:10:35;5.75;;;2.63;;
21474;SDS011;10899;53.576;9.960;2022-11-15T04:13:02;5.38;;;2.63;;
21474;SDS011;10899;53.576;9.960;2022-11-15T04:15:28;7.05;;;2.58;;
21474;SDS011;10899;53.576;9.960;2022-11-15T04:17:56;5.55;;;2.55;;
21474;SDS011;10899;53.576;9.960;2022-11-15T04:20:27;5.72;;;2.90;;
21474;SDS011;10899;53.576;9.960;2022-11-15T04:23:19;4.60;;;2.80;;
21474;SDS011;10899;53.576;9.960;2022-11-15T04:26:06;4.82;;;2.70;;
21474;SDS011;10899;53.576;9.960;2022-11-15T04:28:33;5.80;;;3.10;;
21474;SDS011;10899;53.576;9.960;2022-11-15T04:30:59;6.25;;;2.72;;
21474;SDS011;10899;53.576;9.960;2022-11-15T04:33:26;5.93;;;2.70;;
21474;SDS011;10899;53.576;9.960;2022-11-15T04:35:53;5.10;;;3.15;;
21474;SDS011;10899;53.576;9.960;2022-11-15T04:38:38;4.43;;;2.45;;
21474;SDS011;10899;53.576;9.960;2022-11-15T04:41:04;6.10;;;3.00;;
21474;SDS011;10899;53.576;9.960;2022-11-15T04:43:31;5.30;;;2.67;;
21474;SDS011;10899;53.576;9.960;2022-11-15T04:45:57;5.53;;;2.90;;
21474;SDS011;10899;53.576;9.960;2022-11-15T04:48:24;7.40;;;2.67;;
21474;SDS011;10899;53.576;9.960;2022-11-15T04:50:50;7.85;;;2.65;;
21474;SDS011;10899;53.576;9.960;2022-11-15T04:53:17;6.85;;;3.05;;
21474;SDS011;10899;53.576;9.960;2022-11-15T04:55:46;9.77;;;2.60;;
21474;SDS011;10899;53.576;9.960;2022-11-15T04:58:13;5.28;;;2.90;;
21474;SDS011;10899;53.576;9.960;2022-11-15T05:00:39;4.00;;;2.33;;
21474;SDS011;10899;53.576;9.960;2022-11-15T05:03:06;6.72;;;2.92;;
21474;SDS011;10899;53.576;9.960;2022-11-15T05:05:51;5.20;;;2.72;;
21474;SDS011;10899;53.576;9.960;2022-11-15T05:08:18;4.03;;;2.30;;
21474;SDS011;10899;53.576;9.960;2022-11-15T05:10:44;4.78;;;2.42;;
21474;SDS011;10899;53.576;9.960;2022-11-15T05:13:11;5.10;;;2.58;;
21474;SDS011;10899;53.576;9.960;2022-11-15T05:15:37;4.10;;;2.55;;
21474;SDS011;10899;53.576;9.960;2022-11-15T05:18:04;5.15;;;2.20;;
21474;SDS011;10899;53.576;9.960;2022-11-15T05:20:31;4.07;;;2.38;;
21474;SDS011;10899;53.576;9.960;2022-11-15T05:22:57;5.38;;;2.63;;
21474;SDS011;10899;53.576;9.960;2022-11-15T05:25:24;5.20;;;2.50;;
21474;SDS011;10899;53.576;9.960;2022-11-15T05:27:50;5.65;;;2.30;;
21474;SDS011;10899;53.576;9.960;2022-11-15T05:30:17;4.38;;;2.17;;
21474;SDS011;10899;53.576;9.960;2022-11-15T05:32:44;3.70;;;2.42;;
21474;SDS011;10899;53.576;9.960;2022-11-15T05:35:17;4.50;;;2.38;;
21474;SDS011;10899;53.576;9.960;2022-11-15T05:37:44;4.80;;;2.10;;
21474;SDS011;10899;53.576;9.960;2022-11-15T05:40:11;4.57;;;2.65;;
21474;SDS011;10899;53.576;9.960;2022-11-15T05:42:37;3.60;;;2.65;;
21474;SDS011;10899;53.576;9.960;2022-11-15T05:45:05;5.25;;;2.60;;
21474;SDS011;10899;53.576;9.960;2022-11-15T05:47:32;4.38;;;2.28;;
21474;SDS011;10899;53.576;9.960;2022-11-15T05:50:00;3.08;;;2.17;;
21474;SDS011;10899;53.576;9.960;2022-11-15T05:52:27;4.78;;;1.95;;
21474;SDS011;10899;53.576;9.960;2022-11-15T05:54:55;2.97;;;2.55;;
21474;SDS011;10899;53.576;9.960;2022-11-15T05:57:23;3.70;;;2.08;;
21474;SDS011;10899;53.576;9.960;2022-11-15T05:59:50;3.15;;;2.10;;
21474;SDS011;10899;53.576;9.960;2022-11-15T06:02:17;3.03;;;2.10;;
21474;SDS011;10899;53.576;9.960;2022-11-15T06:04:43;3.45;;;2.38;;
21474;SDS011;10899;53.576;9.960;2022-11-15T06:07:10;3.22;;;2.63;;
21474;SDS011;10899;53.576;9.960;2022-11-15T06:09:36;5.00;;;2.28;;
21474;SDS011;10899;53.576;9.960;2022-11-15T06:12:03;2.38;;;2.08;;
21474;SDS011;10899;53.576;9.960;2022-11-15T06:14:30;4.40;;;2.35;;
21474;SDS011;10899;53.576;9.960;2022-11-15T06:16:56;3.65;;;2.58;;
21474;SDS011;10899;53.576;9.960;2022-11-15T06:19:23;3.20;;;2.35;;
21474;SDS011;10899;53.576;9.960;2022-11-15T06:21:49;3.35;;;2.10;;
21474;SDS011;10899;53.576;9.960;2022-11-15T06:24:16;4.68;;;2.58;;
21474;SDS011;10899;53.576;9.960;2022-11-15T06:26:42;4.30;;;2.30;;
21474;SDS011;10899;53.576;9.960;2022-11-15T06:29:09;2.75;;;2.42;;
21474;SDS011;10899;53.576;9.960;2022-11-15T06:31:35;4.35;;;2.30;;
21474;SDS011;10899;53.576;9.960;2022-11-15T06:34:02;3.78;;;2.17;;
21474;SDS011;10899;53.576;9.960;2022-11-15T06:36:28;2.88;;;2.15;;
21474;SDS011;10899;53.576;9.960;2022-11-15T06:38:56;3.85;;;2.05;;
21474;SDS011;10899;53.576;9.960;2022-11-15T06:41:22;4.72;;;2.53;;
21474;SDS011;10899;53.576;9.960;2022-11-15T06:43:49;3.83;;;2.55;;
21474;SDS011;10899;53.576;9.960;2022-11-15T06:46:15;2.90;;;1.92;;
21474;SDS011;10899;53.576;9.960;2022-11-15T06:48:42;5.22;;;2.25;;
21474;SDS011;10899;53.576;9.960;2022-11-15T06:51:08;3.10;;;2.00;;
21474;SDS011;10899;53.576;9.960;2022-11-15T06:53:35;4.40;;;2.30;;
21474;SDS011;10899;53.576;9.960;2022-11-15T06:56:05;2.17;;;1.98;;
21474;SDS011;10899;53.576;9.960;2022-11-15T06:58:32;2.47;;;1.90;;
21474;SDS011;10899;53.576;9.960;2022-11-15T07:01:04;4.57;;;2.08;;
21474;SDS011;10899;53.576;9.960;2022-11-15T07:03:31;2.95;;;2.00;;
21474;SDS011;10899;53.576;9.960;2022-11-15T07:05:58;2.85;;;2.28;;
21474;SDS011;10899;53.576;9.960;2022-11-15T07:08:26;2.53;;;2.30;;
21474;SDS011;10899;53.576;9.960;2022-11-15T07:10:53;2.83;;;2.28;;
21474;SDS011;10899;53.576;9.960;2022-11-15T07:13:23;2.17;;;1.92;;
21474;SDS011;10899;53.576;9.960;2022-11-15T07:15:50;3.70;;;2.13;;
21474;SDS011;10899;53.576;9.960;2022-11-15T07:18:16;2.88;;;2.00;;
21474;SDS011;10899;53.576;9.960;2022-11-15T07:20:45;2.63;;;2.25;;
21474;SDS011;10899;53.576;9.960;2022-11-15T07:23:12;4.00;;;2.13;;
21474;SDS011;10899;53.576;9.960;2022-11-15T07:25:39;4.43;;;2.33;;
21474;SDS011;10899;53.576;9.960;2022-11-15T07:28:05;3.90;;;2.17;;
21474;SDS011;10899;53.576;9.960;2022-11-15T07:30:32;3.97;;;2.35;;
21474;SDS011;10899;53.576;9.960;2022-11-15T07:32:59;2.20;;;2.00;;
21474;SDS011;10899;53.576;9.960;2022-11-15T07:35:26;2.92;;;2.20;;
21474;SDS011;10899;53.576;9.960;2022-11-15T07:37:53;3.85;;;1.92;;
21474;SDS011;10899;53.576;9.960;2022-11-15T07:40:20;3.85;;;2.05;;
21474;SDS011;10899;53.576;9.960;2022-11-15T07:42:46;2.85;;;2.10;;
21474;SDS011;10899;53.576;9.960;2022-11-15T07:45:19;3.22;;;2.10;;
21474;SDS011;10899;53.576;9.960;2022-11-15T07:47:46;3.42;;;2.30;;
21474;SDS011;10899;53.576;9.960;2022-11-15T07:50:13;2.45;;;1.75;;
21474;SDS011;10899;53.576;9.960;2022-11-15T07:52:40;2.70;;;2.10;;
21474;SDS011;10899;53.576;9.960;2022-11-15T07:55:06;2.42;;;2.22;;
21474;SDS011;10899;53.576;9.960;2022-11-15T07:57:33;2.50;;;1.73;;
21474;SDS011;10899;53.576;9.960;2022-11-15T08:00:00;3.50;;;2.40;;
21474;SDS011;10899;53.576;9.960;2022-11-15T08:02:26;3.97;;;2.22;;
21474;SDS011;10899;53.576;9.960;2022-11-15T08:04:53;2.95;;;2.00;;
21474;SDS011;10899;53.576;9.960;2022-11-15T08:07:19;2.65;;;2.15;;
21474;SDS011;10899;53.576;9.960;2022-11-15T08:09:46;4.35;;;2.10;;
21474;SDS011;10899;53.576;9.960;2022-11-15T08:12:12;2.40;;;2.00;;
21474;SDS011;10899;53.576;9.960;2022-11-15T08:14:40;2.17;;;1.83;;
21474;SDS011;10899;53.576;9.960;2022-11-15T08:17:06;2.60;;;2.15;;
21474;SDS011;10899;53.576;9.960;2022-11-15T08:19:33;3.40;;;2.15;;
21474;SDS011;10899;53.576;9.960;2022-11-15T08:21:59;3.15;;;2.38;;
21474;SDS011;10899;53.576;9.960;2022-11-15T08:24:26;3.03;;;1.92;;
21474;SDS011;10899;53.576;9.960;2022-11-15T08:26:52;2.25;;;1.77;;
21474;SDS011;10899;53.576;9.960;2022-11-15T08:29:19;2.45;;;1.85;;
21474;SDS011;10899;53.576;9.960;2022-11-15T08:31:45;2.78;;;2.10;;
21474;SDS011;10899;53.576;9.960;2022-11-15T08:34:12;1.90;;;1.80;;
21474;SDS011;10899;53.576;9.960;2022-11-15T08:36:39;2.70;;;2.03;;
21474;SDS011;10899;53.576;9.960;2022-11-15T08:39:05;2.22;;;1.90;;
21474;SDS011;10899;53.576;9.960;2022-11-15T08:41:33;3.50;;;2.22;;
21474;SDS011;10899;53.576;9.960;2022-11-15T08:44:03;3.08;;;2.03;;
21474;SDS011;10899;53.576;9.960;2022-11-15T08:46:30;2.83;;;2.00;;
21474;SDS011;10899;53.576;9.960;2022-11-15T08:48:57;1.92;;;1.70;;
21474;SDS011;10899;53.576;9.960;2022-11-15T08:51:23;2.28;;;1.77;;
21474;SDS011;10899;53.576;9.960;2022-11-15T08:53:50;3.50;;;1.90;;
21474;SDS011;10899;53.576;9.960;2022-11-15T08:56:16;2.30;;;1.88;;
21474;SDS011;10899;53.576;9.960;2022-11-15T08:58:43;3.03;;;1.83;;
21474;SDS011;10899;53.576;9.960;2022-11-15T09:01:17;3.63;;;2.20;;
21474;SDS011;10899;53.576;9.960;2022-11-15T09:03:44;2.42;;;1.85;;
21474;SDS011;10899;53.576;9.960;2022-11-15T09:06:10;2.88;;;1.85;;
21474;SDS011;10899;53.576;9.960;2022-11-15T09:08:37;2.30;;;2.10;;
21474;SDS011;10899;53.576;9.960;2022-11-15T09:11:04;2.30;;;2.00;;
21474;SDS011;10899;53.576;9.960;2022-11-15T09:13:31;2.05;;;1.75;;
21474;SDS011;10899;53.576;9.960;2022-11-15T09:15:58;2.15;;;1.80;;
21474;SDS011;10899;53.576;9.960;2022-11-15T09:18:25;2.10;;;1.90;;
21474;SDS011;10899;53.576;9.960;2022-11-15T09:21:01;2.05;;;1.73;;
21474;SDS011;10899;53.576;9.960;2022-11-15T09:23:28;1.55;;;1.45;;
21474;SDS011;10899;53.576;9.960;2022-11-15T09:25:58;2.05;;;1.85;;
21474;SDS011;10899;53.576;9.960;2022-11-15T09:28:25;1.92;;;1.70;;
21474;SDS011;10899;53.576;9.960;2022-11-15T09:30:55;2.60;;;1.90;;
21474;SDS011;10899;53.576;9.960;2022-11-15T09:33:22;3.10;;;1.80;;
21474;SDS011;10899;53.576;9.960;2022-11-15T09:35:49;1.80;;;1.52;;
21474;SDS011;10899;53.576;9.960;2022-11-15T09:38:16;1.75;;;1.50;;
21474;SDS011;10899;53.576;9.960;2022-11-15T09:40:43;1.75;;;1.65;;
21474;SDS011;10899;53.576;9.960;2022-11-15T09:51:24;1.90;;;1.80;;
21474;SDS011;10899;53.576;9.960;2022-11-15T09:56:21;1.73;;;1.55;;
21474;SDS011;10899;53.576;9.960;2022-11-15T09:58:55;2.20;;;1.98;;
21474;SDS011;10899;53.576;9.960;2022-11-15T10:04:10;1.98;;;1.70;;
21474;SDS011;10899;53.576;9.960;2022-11-15T10:06:38;3.95;;;1.77;;
21474;SDS011;10899;53.576;9.960;2022-11-15T10:11:36;2.08;;;1.88;;
21474;SDS011;10899;53.576;9.960;2022-11-15T10:14:22;2.35;;;1.60;;
21474;SDS011;10899;53.576;9.960;2022-11-15T10:19:21;2.55;;;2.03;;
21474;SDS011;10899;53.576;9.960;2022-11-15T10:24:35;2.35;;;1.60;;
21474;SDS011;10899;53.576;9.960;2022-11-15T10:27:07;2.47;;;1.80;;
21474;SDS011;10899;53.576;9.960;2022-11-15T10:29:34;1.92;;;1.70;;
21474;SDS011;10899;53.576;9.960;2022-11-15T10:32:00;3.20;;;1.60;;
21474;SDS011;10899;53.576;9.960;2022-11-15T10:34:27;1.70;;;1.60;;
21474;SDS011;10899;53.576;9.960;2022-11-15T10:36:58;1.77;;;1.50;;
21474;SDS011;10899;53.576;9.960;2022-11-15T10:39:25;1.77;;;1.50;;
21474;SDS011;10899;53.576;9.960;2022-11-15T10:41:52;2.78;;;1.73;;
21474;SDS011;10899;53.576;9.960;2022-11-15T10:44:20;2.00;;;1.77;;
21474;SDS011;10899;53.576;9.960;2022-11-15T10:47:32;2.22;;;1.50;;
21474;SDS011;10899;53.576;9.960;2022-11-15T10:49:34;2.58;;;1.80;;
21474;SDS011;10899;53.576;9.960;2022-11-15T10:52:12;1.45;;;1.27;;
21474;SDS011;10899;53.576;9.960;2022-11-15T10:54:42;1.88;;;1.75;;
21474;SDS011;10899;53.576;9.960;2022-11-15T10:57:14;2.05;;;1.80;;
21474;SDS011;10899;53.576;9.960;2022-11-15T10:59:44;1.60;;;1.50;;
21474;SDS011;10899;53.576;9.960;2022-11-15T11:04:51;2.20;;;1.75;;
21474;SDS011;10899;53.576;9.960;2022-11-15T11:07:22;2.47;;;1.67;;
21474;SDS011;10899;53.576;9.960;2022-11-15T11:09:56;2.40;;;1.48;;
21474;SDS011;10899;53.576;9.960;2022-11-15T11:12:32;1.52;;;1.40;;
21474;SDS011;10899;53.576;9.960;2022-11-15T11:15:00;2.30;;;1.73;;
21474;SDS011;10899;53.576;9.960;2022-11-15T11:30:41;1.80;;;1.50;;
21474;SDS011;10899;53.576;9.960;2022-11-15T11:33:14;1.80;;;1.60;;
21474;SDS011;10899;53.576;9.960;2022-11-15T11:38:26;1.98;;;1.80;;
21474;SDS011;10899;53.576;9.960;2022-11-15T11:46:23;2.63;;;1.88;;
21474;SDS011;10899;53.576;9.960;2022-11-15T11:56:31;1.63;;;1.50;;
21474;SDS011;10899;53.576;9.960;2022-11-15T11:59:32;1.50;;;1.40;;
21474;SDS011;10899;53.576;9.960;2022-11-15T12:01:51;2.03;;;1.55;;
21474;SDS011;10899;53.576;9.960;2022-11-15T12:04:24;1.88;;;1.70;;
21474;SDS011;10899;53.576;9.960;2022-11-15T12:07:03;1.50;;;1.40;;
21474;SDS011;10899;53.576;9.960;2022-11-15T12:09:40;2.30;;;1.58;;
21474;SDS011;10899;53.576;9.960;2022-11-15T12:12:19;3.20;;;1.50;;
21474;SDS011;10899;53.576;9.960;2022-11-15T12:14:50;2.40;;;1.40;;
21474;SDS011;10899;53.576;9.960;2022-11-15T12:17:20;2.25;;;1.50;;
21474;SDS011;10899;53.576;9.960;2022-11-15T12:19:47;1.98;;;1.70;;
21474;SDS011;10899;53.576;9.960;2022-11-15T12:22:22;1.92;;;1.65;;
21474;SDS011;10899;53.576;9.960;2022-11-15T12:24:57;2.53;;;1.55;;
21474;SDS011;10899;53.576;9.960;2022-11-15T12:29:58;1.65;;;1.55;;
21474;SDS011;10899;53.576;9.960;2022-11-15T12:34:55;1.55;;;1.45;;
21474;SDS011;10899;53.576;9.960;2022-11-15T12:43:01;2.53;;;1.50;;
21474;SDS011;10899;53.576;9.960;2022-11-15T12:45:37;1.90;;;1.60;;
21474;SDS011;10899;53.576;9.960;2022-11-15T12:58:42;1.48;;;1.38;;
21474;SDS011;10899;53.576;9.960;2022-11-15T13:01:09;1.48;;;1.38;;
21474;SDS011;10899;53.576;9.960;2022-11-15T13:03:43;1.67;;;1.38;;
21474;SDS011;10899;53.576;9.960;2022-11-15T13:06:37;1.23;;;1.13;;
21474;SDS011;10899;53.576;9.960;2022-11-15T13:09:49;1.80;;;1.60;;
21474;SDS011;10899;53.576;9.960;2022-11-15T13:11:50;1.70;;;1.50;;
21474;SDS011;10899;53.576;9.960;2022-11-15T13:17:03;2.47;;;1.45;;
21474;SDS011;10899;53.576;9.960;2022-11-15T13:19:36;2.47;;;1.70;;
21474;SDS011;10899;53.576;9.960;2022-11-15T13:22:08;3.00;;;1.73;;
21474;SDS011;10899;53.576;9.960;2022-11-15T13:24:54;1.83;;;1.38;;
21474;SDS011;10899;53.576;9.960;2022-11-15T13:27:21;1.50;;;1.40;;
21474;SDS011;10899;53.576;9.960;2022-11-15T13:29:48;3.00;;;1.52;;
21474;SDS011;10899;53.576;9.960;2022-11-15T13:32:15;2.55;;;1.60;;
21474;SDS011;10899;53.576;9.960;2022-11-15T13:34:48;1.60;;;1.50;;
21474;SDS011;10899;53.576;9.960;2022-11-15T13:39:49;1.55;;;1.45;;
21474;SDS011;10899;53.576;9.960;2022-11-15T13:42:20;2.25;;;1.42;;
21474;SDS011;10899;53.576;9.960;2022-11-15T13:45:00;2.28;;;1.33;;
21474;SDS011;10899;53.576;9.960;2022-11-15T13:47:27;1.83;;;1.45;;
21474;SDS011;10899;53.576;9.960;2022-11-15T13:49:58;2.05;;;1.55;;
21474;SDS011;10899;53.576;9.960;2022-11-15T13:52:31;2.35;;;1.40;;
21474;SDS011;10899;53.576;9.960;2022-11-15T13:55:03;1.33;;;1.23;;
21474;SDS011;10899;53.576;9.960;2022-11-15T13:57:41;1.52;;;1.42;;
21474;SDS011;10899;53.576;9.960;2022-11-15T14:02:54;1.48;;;1.38;;
21474;SDS011;10899;53.576;9.960;2022-11-15T14:05:22;1.83;;;1.50;;
21474;SDS011;10899;53.576;9.960;2022-11-15T14:07:53;1.65;;;1.55;;
21474;SDS011;10899;53.576;9.960;2022-11-15T14:12:55;1.40;;;1.30;;
21474;SDS011;10899;53.576;9.960;2022-11-15T14:15:31;1.65;;;1.30;;
21474;SDS011;10899;53.576;9.960;2022-11-15T14:17:58;1.45;;;1.35;;
21474;SDS011;10899;53.576;9.960;2022-11-15T14:23:03;2.40;;;1.70;;
21474;SDS011;10899;53.576;9.960;2022-11-15T14:25:38;1.60;;;1.50;;
21474;SDS011;10899;53.576;9.960;2022-11-15T14:28:11;1.92;;;1.40;;
21474;SDS011;10899;53.576;9.960;2022-11-15T14:30:38;1.90;;;1.70;;
21474;SDS011;10899;53.576;9.960;2022-11-15T14:33:38;1.65;;;1.50;;
21474;SDS011;10899;53.576;9.960;2022-11-15T14:36:01;1.83;;;1.73;;
21474;SDS011;10899;53.576;9.960;2022-11-15T14:38:28;1.55;;;1.45;;
21474;SDS011;10899;53.576;9.960;2022-11-15T14:40:54;3.38;;;1.67;;
21474;SDS011;10899;53.576;9.960;2022-11-15T14:43:22;1.73;;;1.63;;
21474;SDS011;10899;53.576;9.960;2022-11-15T14:45:48;1.65;;;1.55;;
21474;SDS011;10899;53.576;9.960;2022-11-15T14:48:15;2.13;;;1.48;;
21474;SDS011;10899;53.576;9.960;2022-11-15T14:50:41;1.70;;;1.60;;
21474;SDS011;10899;53.576;9.960;2022-11-15T14:53:11;1.80;;;1.70;;
21474;SDS011;10899;53.576;9.960;2022-11-15T14:55:38;1.80;;;1.45;;
21474;SDS011;10899;53.576;9.960;2022-11-15T14:58:05;2.40;;;1.67;;
21474;SDS011;10899;53.576;9.960;2022-11-15T15:00:35;2.03;;;1.55;;
21474;SDS011;10899;53.576;9.960;2022-11-15T15:03:02;1.70;;;1.60;;
21474;SDS011;10899;53.576;9.960;2022-11-15T15:05:39;2.22;;;1.40;;
21474;SDS011;10899;53.576;9.960;2022-11-15T15:08:06;1.67;;;1.40;;
21474;SDS011;10899;53.576;9.960;2022-11-15T15:10:36;1.90;;;1.52;;
21474;SDS011;10899;53.576;9.960;2022-11-15T15:13:03;1.50;;;1.40;;
21474;SDS011;10899;53.576;9.960;2022-11-15T15:15:34;2.13;;;1.25;;
21474;SDS011;10899;53.576;9.960;2022-11-15T15:18:01;1.58;;;1.48;;
21474;SDS011;10899;53.576;9.960;2022-11-15T15:20:29;1.58;;;1.20;;
21474;SDS011;10899;53.576;9.960;2022-11-15T15:22:56;1.15;;;1.13;;
21474;SDS011;10899;53.576;9.960;2022-11-15T15:25:30;2.45;;;1.20;;
21474;SDS011;10899;53.576;9.960;2022-11-15T15:27:57;2.85;;;1.20;;
21474;SDS011;10899;53.576;9.960;2022-11-15T15:30:25;2.55;;;1.50;;
21474;SDS011;10899;53.576;9.960;2022-11-15T15:32:52;2.15;;;1.38;;
21474;SDS011;10899;53.576;9.960;2022-11-15T15:35:19;1.83;;;1.30;;
21474;SDS011;10899;53.576;9.960;2022-11-15T15:37:47;1.25;;;1.00;;
21474;SDS011;10899;53.576;9.960;2022-11-15T15:40:20;3.17;;;1.38;;
21474;SDS011;10899;53.576;9.960;2022-11-15T15:42:48;1.38;;;1.27;;
21474;SDS011;10899;53.576;9.960;2022-11-15T15:45:15;2.15;;;1.30;;
21474;SDS011;10899;53.576;9.960;2022-11-15T15:47:42;3.45;;;1.30;;
21474;SDS011;10899;53.576;9.960;2022-11-15T15:50:16;2.42;;;1.30;;
21474;SDS011;10899;53.576;9.960;2022-11-15T15:52:43;2.50;;;1.33;;
21474;SDS011;10899;53.576;9.960;2022-11-15T15:55:10;3.20;;;1.48;;
21474;SDS011;10899;53.576;9.960;2022-11-15T15:57:37;3.20;;;1.40;;
21474;SDS011;10899;53.576;9.960;2022-11-15T16:00:04;2.25;;;1.38;;
21474;SDS011;10899;53.576;9.960;2022-11-15T16:02:31;3.40;;;1.38;;
21474;SDS011;10899;53.576;9.960;2022-11-15T16:04:57;1.45;;;1.33;;
21474;SDS011;10899;53.576;9.960;2022-11-15T16:07:24;4.75;;;1.38;;
21474;SDS011;10899;53.576;9.960;2022-11-15T16:09:51;3.20;;;1.20;;
21474;SDS011;10899;53.576;9.960;2022-11-15T16:12:30;3.85;;;1.60;;
21474;SDS011;10899;53.576;9.960;2022-11-15T16:14:57;2.47;;;1.33;;
21474;SDS011;10899;53.576;9.960;2022-11-15T16:17:25;3.15;;;1.80;;
21474;SDS011;10899;53.576;9.960;2022-11-15T16:19:52;2.05;;;1.17;;
21474;SDS011;10899;53.576;9.960;2022-11-15T16:22:19;2.63;;;1.65;;
21474;SDS011;10899;53.576;9.960;2022-11-15T16:24:46;2.90;;;1.25;;
21474;SDS011;10899;53.576;9.960;2022-11-15T16:27:14;3.15;;;1.20;;
21474;SDS011;10899;53.576;9.960;2022-11-15T16:29:40;2.20;;;1.08;;
21474;SDS011;10899;53.576;9.960;2022-11-15T16:32:07;8.15;;;1.55;;
21474;SDS011;10899;53.576;9.960;2022-11-15T16:34:34;2.60;;;1.35;;
21474;SDS011;10899;53.576;9.960;2022-11-15T16:37:00;3.60;;;1.73;;
21474;SDS011;10899;53.576;9.960;2022-11-15T16:39:27;2.13;;;1.30;;
21474;SDS011;10899;53.576;9.960;2022-11-15T16:41:58;2.40;;;1.30;;
21474;SDS011;10899;53.576;9.960;2022-11-15T16:44:25;1.55;;;1.23;;
21474;SDS011;10899;53.576;9.960;2022-11-15T16:46:52;2.47;;;1.42;;
21474;SDS011;10899;53.576;9.960;2022-11-15T16:49:19;1.60;;;1.15;;
21474;SDS011;10899;53.576;9.960;2022-11-15T16:51:47;3.70;;;1.75;;
21474;SDS011;10899;53.576;9.960;2022-11-15T16:54:14;5.05;;;1.52;;